Time;durP1;ratioP1;P1;durP2;ratioP2;P2;SDS_P1;SDS_P2;PMS_P1;PMS_P2;Temp;Humidity;BMP_temperature;BMP_pressure;BME280_temperature;BME280_humidity;BME280_pressure;Samples;Min_cycle;Max_cycle;Signal;HPM_P1;HPM_P2
2022/06/07 00:00:11;;;;;;;4.05;1.70;;;16.00;82.10;;;;;;5093011;28;20078;-67
2022/06/07 00:02:37;;;;;;;3.45;2.28;;;16.00;82.10;;;;;;5091191;28;20482;-67
2022/06/07 00:05:03;;;;;;;5.10;2.03;;;16.00;82.10;;;;;;5075127;28;20038;-68
2022/06/07 00:07:29;;;;;;;2.85;1.92;;;16.00;82.10;;;;;;5102262;28;20078;-68
2022/06/07 00:09:55;;;;;;;3.30;2.13;;;16.00;82.30;;;;;;5090458;28;20560;-68
2022/06/07 00:12:22;;;;;;;3.58;2.67;;;15.90;82.30;;;;;;5080692;28;20040;-65
2022/06/07 00:14:49;;;;;;;2.85;2.20;;;16.00;82.40;;;;;;5096996;28;20024;-65
2022/06/07 00:17:14;;;;;;;2.67;2.20;;;15.90;82.50;;;;;;5088944;28;20813;-65
2022/06/07 00:19:41;;;;;;;3.45;2.55;;;15.90;82.50;;;;;;5091407;28;20040;-65
2022/06/07 00:22:07;;;;;;;2.75;2.00;;;15.90;82.50;;;;;;5080646;28;20078;-65
2022/06/07 00:24:33;;;;;;;2.95;2.60;;;15.90;82.50;;;;;;5080256;28;20027;-64
2022/06/07 00:26:59;;;;;;;4.25;3.33;;;16.00;82.70;;;;;;5071161;28;20043;-64
2022/06/07 00:29:27;;;;;;;4.10;2.15;;;16.00;82.80;;;;;;5085924;28;20032;-64
2022/06/07 00:31:53;;;;;;;8.10;3.58;;;16.00;82.80;;;;;;5078892;28;20016;-65
2022/06/07 00:34:19;;;;;;;3.97;2.95;;;15.90;83.00;;;;;;5087165;28;20020;-66
2022/06/07 00:36:45;;;;;;;4.32;3.08;;;15.90;83.10;;;;;;5080969;28;20033;-67
2022/06/07 00:39:11;;;;;;;4.40;3.40;;;15.90;83.20;;;;;;5069205;28;20198;-67
2022/06/07 00:41:37;;;;;;;5.13;2.60;;;15.90;83.30;;;;;;5081468;28;20057;-67
2022/06/07 00:44:21;;;;;;;5.70;3.75;;;16.00;83.30;;;;;;5096622;28;20032;-67
2022/06/07 00:46:54;;;;;;;4.43;3.95;;;16.00;83.30;;;;;;5077775;28;20020;-67
2022/06/07 00:49:21;;;;;;;8.90;3.65;;;16.00;83.40;;;;;;5099501;28;20035;-67
2022/06/07 00:51:47;;;;;;;4.55;3.35;;;16.00;83.50;;;;;;5091444;28;20024;-67
2022/06/07 00:54:25;;;;;;;5.07;3.17;;;16.00;83.40;;;;;;5089326;28;20082;-67
2022/06/07 00:56:52;;;;;;;3.53;2.83;;;16.10;83.30;;;;;;5091035;28;20032;-67
2022/06/07 00:59:18;;;;;;;5.47;4.22;;;16.10;83.20;;;;;;5088413;28;20071;-67
2022/06/07 01:01:45;;;;;;;4.63;3.80;;;16.10;83.10;;;;;;5088495;28;20386;-67
2022/06/07 01:04:10;;;;;;;8.98;6.13;;;16.10;83.10;;;;;;5086451;28;20029;-67
2022/06/07 01:12:05;;;;;;;6.10;4.47;;;16.10;83.40;;;;;;5072352;28;20107;-64
2022/06/07 01:14:31;;;;;;;7.45;4.75;;;16.00;83.60;;;;;;5071639;28;20442;-65
2022/06/07 01:16:58;;;;;;;8.57;5.80;;;16.00;83.70;;;;;;5079314;28;20039;-65
2022/06/07 01:19:24;;;;;;;5.82;4.28;;;16.10;83.70;;;;;;5084404;28;20067;-64
2022/06/07 01:21:50;;;;;;;7.50;4.63;;;16.10;83.70;;;;;;5082183;28;20020;-64
2022/06/07 01:24:16;;;;;;;7.20;5.13;;;16.10;83.70;;;;;;5079958;28;20031;-64
2022/06/07 01:26:42;;;;;;;6.70;4.53;;;16.10;83.70;;;;;;5093837;28;20033;-64
2022/06/07 01:29:10;;;;;;;8.50;4.95;;;16.10;83.70;;;;;;5060997;28;20074;-65
2022/06/07 01:31:36;;;;;;;4.78;3.95;;;16.10;83.90;;;;;;5093352;28;20686;-65
2022/06/07 01:34:03;;;;;;;6.95;4.78;;;16.10;83.80;;;;;;5076893;28;20029;-64
2022/06/07 01:36:30;;;;;;;6.10;4.85;;;16.10;83.90;;;;;;5084680;28;20036;-64
2022/06/07 01:41:56;;;;;;;4.07;3.00;;;16.10;84.10;;;;;;5088525;28;20069;-64
2022/06/07 01:44:29;;;;;;;7.03;4.80;;;16.10;84.00;;;;;;5086436;28;20037;-64
2022/06/07 01:46:57;;;;;;;7.38;4.40;;;16.10;84.00;;;;;;5079188;28;20024;-65
2022/06/07 01:49:23;;;;;;;7.97;4.85;;;16.10;84.00;;;;;;5083384;28;20044;-65
2022/06/07 01:51:50;;;;;;;8.60;5.57;;;16.10;84.10;;;;;;5092875;28;20107;-65
2022/06/07 01:54:16;;;;;;;8.10;5.00;;;16.10;84.10;;;;;;5080413;28;20059;-64
2022/06/07 01:56:42;;;;;;;9.48;5.70;;;16.10;84.00;;;;;;5096882;28;20482;-64
2022/06/07 01:59:08;;;;;;;13.65;6.30;;;16.10;84.00;;;;;;5076297;28;20053;-65
2022/06/07 02:01:35;;;;;;;7.53;4.95;;;16.20;84.30;;;;;;5099503;28;20484;-65
2022/06/07 02:04:00;;;;;;;9.70;5.28;;;16.20;84.30;;;;;;5084750;28;20625;-65
2022/06/07 02:06:26;;;;;;;10.02;5.40;;;16.20;84.30;;;;;;5080398;28;20107;-65
2022/06/07 02:08:52;;;;;;;7.07;4.95;;;16.10;84.20;;;;;;5100264;28;20114;-65
2022/06/07 02:11:23;;;;;;;8.00;4.93;;;16.10;84.80;;;;;;5095875;28;20023;-65
2022/06/07 02:13:49;;;;;;;7.78;6.07;;;16.10;84.20;;;;;;5098462;28;20029;-67
2022/06/07 02:16:17;;;;;;;10.73;6.43;;;16.10;84.30;;;;;;5099191;28;20054;-67
2022/06/07 02:18:42;;;;;;;10.85;6.45;;;16.10;84.50;;;;;;5091995;28;20024;-65
2022/06/07 02:21:11;;;;;;;7.95;4.90;;;16.10;84.60;;;;;;5079379;28;20021;-66
2022/06/07 02:23:37;;;;;;;6.47;4.45;;;16.10;84.60;;;;;;5112001;27;20433;-65
2022/06/07 02:26:35;;;;;;;7.30;4.43;;;16.10;84.50;;;;;;5069118;28;20023;-64
2022/06/07 02:29:07;;;;;;;9.27;5.20;;;16.20;84.60;;;;;;5069452;28;20036;-64
2022/06/07 02:31:36;;;;;;;7.72;5.43;;;16.20;84.40;;;;;;5069473;28;20052;-64
2022/06/07 02:34:03;;;;;;;6.20;4.65;;;16.30;84.20;;;;;;5069424;28;20388;-65
2022/06/07 02:36:31;;;;;;;6.78;4.43;;;16.30;84.10;;;;;;5073397;28;20033;-64
2022/06/07 02:38:58;;;;;;;7.95;5.53;;;16.30;84.10;;;;;;5076219;28;20373;-64
2022/06/07 02:41:26;;;;;;;6.18;5.22;;;16.30;84.00;;;;;;5082106;28;20158;-65
2022/06/07 02:43:52;;;;;;;6.60;4.88;;;16.30;84.10;;;;;;5083682;28;20029;-64
2022/06/07 02:46:18;;;;;;;11.32;6.28;;;16.30;84.00;;;;;;5080318;28;20072;-64
2022/06/07 02:48:44;;;;;;;6.65;5.13;;;16.30;83.90;;;;;;5096467;28;20036;-64
2022/06/07 02:51:09;;;;;;;9.73;6.15;;;16.30;83.80;;;;;;5086852;28;20029;-65
2022/06/07 02:53:35;;;;;;;10.00;5.60;;;16.30;83.90;;;;;;5080516;28;20724;-64
2022/06/07 02:56:01;;;;;;;11.77;7.28;;;16.30;83.90;;;;;;5069953;28;20047;-65
2022/06/07 02:58:27;;;;;;;13.20;7.40;;;16.20;83.90;;;;;;5071642;28;20547;-65
2022/06/07 03:00:54;;;;;;;8.82;5.68;;;16.20;84.10;;;;;;5075690;28;20029;-65
2022/06/07 03:03:20;;;;;;;9.40;6.07;;;16.10;84.10;;;;;;5072682;28;20035;-64
2022/06/07 03:05:46;;;;;;;11.98;7.78;;;16.10;84.20;;;;;;5075532;28;20024;-65
2022/06/07 03:08:14;;;;;;;12.02;6.85;;;16.10;84.20;;;;;;5073939;28;20540;-65
2022/06/07 03:10:40;;;;;;;12.43;5.97;;;16.10;84.30;;;;;;5082678;28;20035;-65
2022/06/07 03:13:06;;;;;;;7.45;6.57;;;16.10;84.30;;;;;;5089662;28;20035;-65
2022/06/07 03:15:31;;;;;;;11.02;6.72;;;16.10;84.30;;;;;;5085970;28;20028;-65
2022/06/07 03:17:57;;;;;;;8.40;6.07;;;16.10;84.30;;;;;;5097383;28;20356;-65
2022/06/07 03:20:23;;;;;;;10.70;6.40;;;16.10;84.20;;;;;;5076181;28;20043;-64
2022/06/07 03:22:48;;;;;;;7.55;5.82;;;16.10;84.00;;;;;;5066736;28;20021;-64
2022/06/07 03:25:14;;;;;;;11.65;6.55;;;16.10;84.00;;;;;;5073795;28;20028;-65
2022/06/07 03:27:40;;;;;;;9.73;5.95;;;16.10;84.10;;;;;;5077841;28;20074;-65
2022/06/07 03:30:09;;;;;;;9.20;5.85;;;16.00;84.10;;;;;;5074251;28;20106;-65
2022/06/07 03:32:35;;;;;;;7.50;5.85;;;16.10;84.10;;;;;;5073820;28;20034;-65
2022/06/07 03:35:02;;;;;;;9.48;6.28;;;16.10;84.10;;;;;;5078095;28;20024;-64
2022/06/07 03:37:28;;;;;;;7.95;4.68;;;16.10;84.10;;;;;;5077388;28;20123;-64
2022/06/07 03:39:54;;;;;;;8.25;5.72;;;16.10;84.10;;;;;;5083142;28;20107;-64
2022/06/07 03:42:20;;;;;;;10.57;7.93;;;16.10;84.10;;;;;;5068741;28;20189;-64
2022/06/07 03:44:48;;;;;;;9.27;5.75;;;16.10;84.20;;;;;;5073500;28;20077;-64
2022/06/07 03:47:18;;;;;;;7.32;5.80;;;16.10;84.10;;;;;;5069794;28;20040;-64
2022/06/07 03:49:43;;;;;;;7.57;4.60;;;16.10;84.10;;;;;;5077040;28;20028;-64
2022/06/07 03:52:10;;;;;;;7.35;5.30;;;16.10;84.10;;;;;;5075959;28;20020;-64
2022/06/07 03:54:35;;;;;;;10.15;6.95;;;16.10;83.90;;;;;;5075818;28;20048;-65
2022/06/07 03:57:03;;;;;;;8.38;6.13;;;16.10;84.00;;;;;;5070465;28;20060;-67
2022/06/07 03:59:28;;;;;;;7.10;5.35;;;16.10;84.20;;;;;;5086892;28;20036;-67
2022/06/07 04:01:55;;;;;;;14.00;5.72;;;16.00;84.30;;;;;;5085430;28;20035;-67
2022/06/07 04:04:21;;;;;;;6.55;5.82;;;16.00;84.40;;;;;;5084676;28;20046;-68
2022/06/07 04:09:39;;;;;;;8.23;5.68;;;16.00;84.20;;;;;;5084135;28;20042;-67
2022/06/07 04:12:11;;;;;;;;;;;16.00;84.30;;;;;;5087411;28;20024;-64
2022/06/07 04:14:38;;;;;;;;;;;16.00;84.40;;;;;;5079304;28;19915;-67
2022/06/07 04:17:05;;;;;;;9.05;5.75;;;16.00;84.40;;;;;;5070388;28;19908;-67
2022/06/07 04:19:32;;;;;;;5.50;4.72;;;15.90;84.20;;;;;;5075880;28;20050;-64
2022/06/07 04:21:58;;;;;;;7.35;4.70;;;16.00;84.30;;;;;;5069269;28;20410;-64
2022/06/07 04:24:24;;;;;;;8.75;5.80;;;16.00;84.30;;;;;;5066530;28;20029;-65
2022/06/07 04:26:49;;;;;;;13.75;5.25;;;16.00;84.90;;;;;;5074773;28;20028;-65
2022/06/07 04:29:15;;;;;;;10.45;5.13;;;16.00;84.30;;;;;;5085174;28;20885;-64
2022/06/07 04:31:41;;;;;;;9.75;5.30;;;16.10;84.30;;;;;;5068809;28;20523;-64
2022/06/07 04:34:07;;;;;;;5.07;3.63;;;16.10;84.20;;;;;;5078721;28;20476;-64
2022/06/07 04:36:33;;;;;;;17.50;6.07;;;16.10;84.10;;;;;;5068118;28;20060;-64
2022/06/07 04:39:01;;;;;;;13.07;6.80;;;16.10;84.10;;;;;;5068563;28;20507;-64
2022/06/07 04:41:26;;;;;;;8.15;6.32;;;16.10;84.10;;;;;;5081506;28;20027;-64
2022/06/07 04:43:53;;;;;;;7.28;5.00;;;16.10;84.10;;;;;;5075733;28;20028;-65
2022/06/07 04:46:20;;;;;;;9.55;6.78;;;16.20;84.20;;;;;;5073674;28;20125;-64
2022/06/07 04:48:47;;;;;;;8.43;5.47;;;16.10;84.10;;;;;;5072511;28;20037;-64
2022/06/07 04:51:16;;;;;;;8.77;6.60;;;16.10;84.10;;;;;;5074808;28;20102;-64
2022/06/07 04:53:42;;;;;;;10.52;6.90;;;16.20;84.20;;;;;;5088294;28;20126;-64
2022/06/07 04:56:14;;;;;;;6.72;5.25;;;16.20;84.20;;;;;;5070604;28;20033;-65
2022/06/07 04:58:40;;;;;;;8.10;5.82;;;16.20;84.30;;;;;;5071253;28;20048;-67
2022/06/07 05:01:14;;;;;;;9.38;5.10;;;16.30;84.10;;;;;;5071906;28;20483;-68
2022/06/07 05:03:41;;;;;;;7.47;5.45;;;16.30;84.00;;;;;;5096423;28;20035;-67
2022/06/07 05:06:23;;;;;;;7.10;5.07;;;16.30;84.00;;;;;;5085999;28;20036;-68
2022/06/07 05:08:50;;;;;;;;;;;16.30;84.00;;;;;;5078402;28;20056;-68
2022/06/07 05:11:16;;;;;;;11.43;6.68;;;16.30;84.00;;;;;;5077017;28;20135;-65
2022/06/07 05:13:42;;;;;;;8.95;6.43;;;16.30;83.80;;;;;;5084606;28;20043;-68
2022/06/07 05:16:08;;;;;;;10.93;6.50;;;16.30;83.60;;;;;;5074977;28;20462;-68
2022/06/07 05:18:34;;;;;;;9.63;6.00;;;16.20;83.80;;;;;;5073738;28;20078;-68
2022/06/07 05:21:03;;;;;;;8.88;5.65;;;16.20;84.00;;;;;;5083236;28;20475;-67
2022/06/07 05:23:29;;;;;;;10.52;6.63;;;16.20;84.00;;;;;;5085165;28;20440;-67
2022/06/07 05:26:00;;;;;;;7.45;5.38;;;16.10;84.00;;;;;;5075818;28;20124;-67
2022/06/07 05:28:26;;;;;;;9.52;6.53;;;16.10;84.10;;;;;;5075715;28;20063;-67
2022/06/07 05:30:52;;;;;;;8.63;6.43;;;16.10;84.00;;;;;;5070410;28;20111;-67
2022/06/07 05:33:18;;;;;;;7.97;6.00;;;16.10;84.10;;;;;;5069568;28;20107;-69
2022/06/07 05:35:43;;;;;;;6.55;4.25;;;16.10;84.10;;;;;;5071441;28;20025;-68
2022/06/07 05:38:11;;;;;;;7.75;5.75;;;16.10;84.10;;;;;;5077908;28;20036;-67
2022/06/07 05:40:37;;;;;;;9.45;5.97;;;16.10;83.90;;;;;;5085671;28;20044;-68
2022/06/07 05:43:04;;;;;;;10.95;6.55;;;16.20;83.80;;;;;;5080866;28;20028;-68
2022/06/07 05:45:33;;;;;;;9.90;6.13;;;16.10;83.80;;;;;;5076163;28;20042;-67
2022/06/07 05:47:59;;;;;;;10.40;6.68;;;16.10;83.90;;;;;;5091926;28;20111;-68
2022/06/07 05:50:25;;;;;;;6.25;4.20;;;16.10;83.80;;;;;;5074748;28;20124;-67
2022/06/07 05:52:51;;;;;;;6.38;5.40;;;16.20;84.00;;;;;;5073540;28;20058;-67
2022/06/07 05:55:17;;;;;;;8.73;6.45;;;16.20;83.90;;;;;;5076896;28;20020;-68
2022/06/07 05:57:49;;;;;;;24.73;6.93;;;16.20;83.80;;;;;;5069829;28;20029;-68
2022/06/07 06:00:16;;;;;;;8.18;5.65;;;16.20;83.80;;;;;;5069370;28;20021;-67
2022/06/07 06:02:42;;;;;;;6.22;4.95;;;16.20;83.70;;;;;;5075385;28;20532;-67
2022/06/07 06:05:08;;;;;;;9.82;6.63;;;16.30;83.70;;;;;;5079748;28;20028;-67
2022/06/07 06:07:34;;;;;;;9.18;6.00;;;16.30;83.60;;;;;;5074133;28;20076;-67
2022/06/07 06:12:44;;;;;;;13.68;7.93;;;16.40;83.50;;;;;;5073639;28;20043;-67
2022/06/07 06:15:10;;;;;;;14.57;6.25;;;16.40;83.50;;;;;;5070240;28;20025;-67
2022/06/07 06:17:36;;;;;;;7.13;4.53;;;16.30;83.40;;;;;;5081805;28;20035;-67
2022/06/07 06:20:01;;;;;;;7.38;5.43;;;16.40;83.40;;;;;;5091100;28;20064;-67
2022/06/07 06:22:27;;;;;;;9.38;5.72;;;16.40;83.40;;;;;;5084331;28;20028;-67
2022/06/07 06:24:53;;;;;;;8.57;6.07;;;16.50;83.30;;;;;;5076090;28;20434;-68
2022/06/07 06:27:19;;;;;;;9.32;5.93;;;16.60;83.10;;;;;;5080106;28;20024;-67
2022/06/07 06:29:44;;;;;;;8.88;5.93;;;16.60;83.10;;;;;;5077185;28;20033;-67
2022/06/07 06:32:10;;;;;;;10.88;4.88;;;16.60;82.90;;;;;;5070482;28;20051;-67
2022/06/07 06:34:36;;;;;;;8.25;5.25;;;16.60;82.70;;;;;;5076552;28;20089;-67
2022/06/07 06:37:02;;;;;;;7.22;5.10;;;16.50;82.60;;;;;;5071965;28;20548;-68
2022/06/07 06:39:28;;;;;;;5.88;4.38;;;16.60;82.80;;;;;;5090541;28;20040;-68
2022/06/07 06:41:54;;;;;;;8.55;4.75;;;16.60;82.70;;;;;;5080597;28;20123;-67
2022/06/07 06:44:20;;;;;;;6.60;4.70;;;16.60;82.60;;;;;;5069208;28;20096;-68
2022/06/07 06:46:47;;;;;;;6.65;3.80;;;16.70;82.60;;;;;;5083365;28;20032;-67
2022/06/07 06:49:14;;;;;;;8.02;4.57;;;16.70;82.40;;;;;;5086403;28;20020;-67
2022/06/07 06:51:41;;;;;;;12.02;5.93;;;16.70;82.30;;;;;;5097492;28;20074;-68
2022/06/07 06:54:09;;;;;;;9.48;6.15;;;16.70;82.30;;;;;;5087946;28;20023;-68
2022/06/07 06:56:35;;;;;;;11.18;6.63;;;16.70;82.20;;;;;;5071569;28;20573;-68
2022/06/07 06:59:01;;;;;;;11.65;6.85;;;16.80;82.10;;;;;;5082426;28;20055;-68
2022/06/07 07:01:33;;;;;;;8.95;6.28;;;16.80;81.90;;;;;;5087581;28;20031;-68
2022/06/07 07:04:01;;;;;;;11.15;6.20;;;16.80;81.80;;;;;;5078655;28;20028;-68
2022/06/07 07:06:27;;;;;;;7.35;5.68;;;16.90;81.60;;;;;;5082687;28;20508;-68
2022/06/07 07:08:57;;;;;;;7.50;5.05;;;16.90;81.30;;;;;;5095809;28;20130;-68
2022/06/07 07:11:29;;;;;;;9.32;6.20;;;16.80;81.40;;;;;;5080412;28;20404;-67
2022/06/07 07:13:56;;;;;;;;;;;16.80;81.40;;;;;;5079438;28;20035;-68
2022/06/07 07:16:25;;;;;;;10.15;5.82;;;16.80;81.50;;;;;;5081323;28;19916;-67
2022/06/07 07:18:52;;;;;;;8.43;5.35;;;16.70;81.60;;;;;;5069726;28;20028;-67
2022/06/07 07:21:24;;;;;;;7.53;5.35;;;16.70;81.70;;;;;;5082421;28;20025;-67
2022/06/07 07:23:50;;;;;;;7.20;4.90;;;16.70;81.70;;;;;;5081496;28;20012;-68
2022/06/07 07:26:21;;;;;;;10.48;6.38;;;16.80;81.80;;;;;;5087494;28;20436;-69
2022/06/07 07:28:49;;;;;;;6.15;4.90;;;16.80;81.50;;;;;;5084351;28;20379;-68
2022/06/07 07:31:18;;;;;;;6.80;4.38;;;16.80;81.50;;;;;;5076737;28;20360;-66
2022/06/07 07:33:44;;;;;;;9.52;4.43;;;16.90;81.30;;;;;;5073339;28;20411;-68
2022/06/07 07:36:11;;;;;;;8.57;5.07;;;16.90;81.30;;;;;;5088436;28;20016;-67
2022/06/07 07:38:39;;;;;;;7.93;5.22;;;17.10;81.10;;;;;;5087325;28;20024;-67
2022/06/07 07:41:15;;;;;;;15.73;6.22;;;17.20;80.70;;;;;;5088215;28;20021;-66
2022/06/07 07:43:42;;;;;;;8.15;4.28;;;17.30;80.50;;;;;;5095915;28;20032;-67
2022/06/07 07:46:08;;;;;;;8.40;5.53;;;17.40;80.40;;;;;;5087404;28;20020;-67
2022/06/07 07:48:34;;;;;;;6.93;5.55;;;17.40;79.90;;;;;;5086825;28;20042;-66
2022/06/07 07:51:04;;;;;;;8.98;5.10;;;17.40;79.80;;;;;;5076601;28;20020;-66
2022/06/07 07:53:30;;;;;;;7.85;5.57;;;17.40;79.80;;;;;;5063296;28;20028;-68
2022/06/07 07:55:55;;;;;;;8.45;5.30;;;17.40;79.80;;;;;;5087553;28;20521;-67
2022/06/07 07:58:23;;;;;;;7.63;4.80;;;17.40;80.00;;;;;;5101551;28;20120;-67
2022/06/07 08:00:49;;;;;;;7.25;5.90;;;17.40;80.00;;;;;;5090491;28;20103;-64
2022/06/07 08:03:15;;;;;;;7.45;4.28;;;17.50;79.90;;;;;;5076517;28;20474;-64
2022/06/07 08:05:42;;;;;;;5.38;4.30;;;17.50;79.80;;;;;;5077462;28;20028;-67
2022/06/07 08:08:09;;;;;;;8.82;6.32;;;17.50;79.30;;;;;;5074581;28;20458;-67
2022/06/07 08:10:34;;;;;;;6.82;4.95;;;17.50;79.10;;;;;;5088840;28;20402;-68
2022/06/07 08:13:04;;;;;;;6.53;4.53;;;17.50;78.90;;;;;;5069919;28;20013;-64
2022/06/07 08:15:32;;;;;;;5.80;4.35;;;17.50;79.00;;;;;;5071161;28;20995;-65
2022/06/07 08:18:02;;;;;;;6.65;4.32;;;17.60;79.20;;;;;;5071047;28;20107;-63
2022/06/07 08:20:29;;;;;;;5.70;4.13;;;17.70;79.20;;;;;;5075296;28;20033;-65
2022/06/07 08:22:55;;;;;;;4.70;3.38;;;17.70;78.90;;;;;;5083972;28;20035;-65
2022/06/07 08:25:21;;;;;;;8.38;4.95;;;17.70;78.80;;;;;;5074197;28;20032;-65
2022/06/07 08:27:47;;;;;;;6.82;4.72;;;17.70;78.60;;;;;;5091052;28;20028;-65
2022/06/07 08:30:14;;;;;;;7.18;4.72;;;17.70;78.20;;;;;;5091066;28;20028;-65
2022/06/07 08:32:40;;;;;;;5.03;4.03;;;17.80;78.30;;;;;;5071960;28;20025;-65
2022/06/07 08:37:50;;;;;;;4.65;3.03;;;17.90;76.90;;;;;;5080285;28;20121;-64
2022/06/07 08:40:27;;;;;;;4.82;3.83;;;17.90;77.10;;;;;;5089327;28;20050;-64
2022/06/07 08:42:56;;;;;;;5.00;3.13;;;18.00;76.80;;;;;;5079931;28;20031;-64
2022/06/07 08:45:33;;;;;;;4.68;3.75;;;18.00;76.80;;;;;;5071467;28;20040;-65
2022/06/07 08:48:12;;;;;;;6.15;3.60;;;18.00;75.90;;;;;;5074841;28;20483;-63
2022/06/07 08:50:48;;;;;;;7.18;4.03;;;17.90;76.00;;;;;;5087045;28;20026;-64
2022/06/07 08:53:20;;;;;;;3.60;2.75;;;18.00;76.10;;;;;;5073678;28;20498;-64
2022/06/07 08:55:53;;;;;;;5.32;2.83;;;18.10;76.20;;;;;;5071044;28;20066;-64
2022/06/07 08:58:24;;;;;;;2.85;2.58;;;18.20;76.00;;;;;;5071049;28;20162;-64
2022/06/07 09:00:56;;;;;;;5.15;3.03;;;18.30;75.00;;;;;;5079855;28;20483;-65
2022/06/07 09:03:40;;;;;;;5.25;3.50;;;18.40;75.20;;;;;;5085948;28;20085;-64
2022/06/07 09:06:21;;;;;;;2.95;2.40;;;18.50;75.10;;;;;;5071374;28;20039;-64
2022/06/07 09:08:53;;;;;;;4.20;2.70;;;18.60;74.80;;;;;;5075846;28;20020;-64
2022/06/07 09:14:43;;;;;;;2.65;2.05;;;18.70;74.30;;;;;;5074112;28;20402;-64
2022/06/07 09:17:19;;;;;;;3.15;2.50;;;18.70;74.40;;;;;;5079348;28;20407;-65
2022/06/07 09:19:47;;;;;;;5.72;3.33;;;18.70;74.40;;;;;;5070521;28;20029;-63
2022/06/07 09:22:25;;;;;;;2.72;1.67;;;18.70;74.30;;;;;;5084288;28;20157;-64
2022/06/07 09:24:57;;;;;;;5.13;2.67;;;18.60;74.50;;;;;;5088039;28;20019;-64
2022/06/07 09:27:25;;;;;;;2.42;1.70;;;18.60;74.40;;;;;;5077976;28;20451;-65
2022/06/07 09:29:55;;;;;;;2.78;2.50;;;18.60;74.70;;;;;;5079137;28;20029;-64
2022/06/07 09:32:23;;;;;;;3.67;3.05;;;18.60;74.70;;;;;;5078832;28;20036;-67
2022/06/07 09:35:15;;;;;;;6.13;3.75;;;18.60;74.60;;;;;;5081079;28;20039;-68
2022/06/07 09:37:56;;;;;;;5.20;4.18;;;18.60;74.70;;;;;;5089031;28;20055;-67
2022/06/07 09:40:37;;;;;;;4.05;3.15;;;18.50;74.90;;;;;;5083348;28;20031;-67
2022/06/07 09:43:11;;;;;;;7.05;3.55;;;18.50;75.10;;;;;;5084726;28;20020;-67
2022/06/07 09:45:46;;;;;;;6.82;3.42;;;18.40;75.30;;;;;;5072475;28;20024;-68
2022/06/07 09:48:40;;;;;;;4.50;3.15;;;18.40;75.50;;;;;;5083794;28;20027;-64
2022/06/07 09:51:38;;;;;;;5.32;3.80;;;18.40;75.50;;;;;;5084661;28;20334;-64
2022/06/07 09:54:17;;;;;;;5.28;3.13;;;18.40;75.60;;;;;;5059058;28;20579;-64
2022/06/07 09:57:01;;;;;;;7.55;5.32;;;18.40;75.80;;;;;;5072186;28;20027;-64
2022/06/07 09:59:49;;;;;;;5.78;5.05;;;18.50;75.70;;;;;;5075236;28;20052;-64
2022/06/07 10:02:45;;;;;;;7.53;5.45;;;18.50;75.80;;;;;;5075959;28;20153;-63
2022/06/07 10:05:30;;;;;;;7.65;5.80;;;18.50;76.00;;;;;;5080593;28;20024;-64
2022/06/07 10:08:30;;;;;;;7.00;4.68;;;18.60;76.00;;;;;;5083509;28;20047;-64
2022/06/07 10:11:00;;;;;;;10.63;5.68;;;18.80;75.80;;;;;;5081998;28;20039;-65
2022/06/07 10:13:38;;;;;;;6.38;5.43;;;18.90;75.70;;;;;;5076698;28;20020;-63
2022/06/07 10:16:10;;;;;;;6.63;4.82;;;19.00;74.80;;;;;;5077841;28;20074;-64
2022/06/07 10:19:01;;;;;;;14.32;6.03;;;19.00;74.60;;;;;;5084368;28;20063;-63
2022/06/07 10:22:00;;;;;;;7.57;5.15;;;19.10;74.20;;;;;;5090995;28;20450;-68
2022/06/07 10:24:38;;;;;;;11.98;6.68;;;19.00;74.50;;;;;;5078622;28;20021;-68
2022/06/07 10:27:11;;;;;;;11.35;5.25;;;19.00;74.80;;;;;;5087774;28;20071;-67
2022/06/07 10:30:07;;;;;;;7.55;5.82;;;19.10;75.40;;;;;;5095601;28;20384;-63
2022/06/07 10:32:35;;;;;;;11.75;4.95;;;19.20;74.70;;;;;;5072714;28;20056;-65
2022/06/07 10:35:05;;;;;;;7.70;4.80;;;19.20;74.30;;;;;;5078952;28;20451;-65
2022/06/07 10:38:00;;;;;;;5.68;3.85;;;19.20;74.10;;;;;;5096766;28;20036;-65
2022/06/07 10:40:41;;;;;;;6.78;4.18;;;19.20;74.30;;;;;;5094328;28;20080;-64
2022/06/07 10:43:21;;;;;;;7.28;5.30;;;19.30;74.30;;;;;;5072887;28;20103;-64
2022/06/07 10:45:49;;;;;;;7.70;4.25;;;19.30;74.10;;;;;;5075579;28;20020;-64
2022/06/07 10:48:33;;;;;;;5.00;3.10;;;19.20;74.20;;;;;;5088082;28;20378;-64
2022/06/07 10:52:20;;;;;;;5.15;3.80;;;19.40;74.30;;;;;;5088795;28;20028;-67
2022/06/07 10:53:59;;;;;;;8.57;3.85;;;19.60;74.00;;;;;;5088421;28;20024;-68
2022/06/07 10:56:27;;;;;;;8.40;4.10;;;19.60;73.50;;;;;;5088097;28;20475;-68
2022/06/07 10:58:55;;;;;;;5.32;3.95;;;19.60;72.60;;;;;;5091689;28;20055;-67
2022/06/07 11:01:45;;;;;;;6.10;3.60;;;19.60;72.70;;;;;;5089840;28;20459;-68
2022/06/07 11:10:28;;;;;;;7.25;5.43;;;19.70;73.00;;;;;;5090898;28;20386;-68
2022/06/07 11:13:20;;;;;;;7.88;4.68;;;19.70;72.30;;;;;;5084014;28;20028;-64
2022/06/07 11:15:57;;;;;;;4.30;2.78;;;19.70;72.30;;;;;;5061355;28;20074;-64
2022/06/07 11:18:25;;;;;;;7.35;3.45;;;19.70;72.60;;;;;;5095703;28;20035;-67
2022/06/07 11:21:03;;;;;;;5.25;3.25;;;19.80;72.70;;;;;;5082262;28;20035;-68
2022/06/07 11:23:43;;;;;;;4.05;2.83;;;19.80;73.10;;;;;;5087918;28;20071;-67
2022/06/07 11:26:14;;;;;;;4.47;3.33;;;19.80;72.30;;;;;;5099149;28;20058;-68
2022/06/07 11:28:39;;;;;;;6.63;3.92;;;19.60;72.10;;;;;;5091373;28;20027;-67
2022/06/07 11:31:23;;;;;;;5.35;3.75;;;19.50;72.50;;;;;;5080774;28;20399;-67
2022/06/07 11:33:52;;;;;;;4.72;3.35;;;19.50;72.80;;;;;;5075482;28;20062;-68
2022/06/07 11:36:20;;;;;;;5.65;3.42;;;19.60;72.90;;;;;;5079500;28;20043;-64
2022/06/07 11:38:55;;;;;;;4.65;3.63;;;19.60;72.60;;;;;;5074292;28;20627;-64
2022/06/07 11:41:38;;;;;;;5.03;3.35;;;19.70;72.60;;;;;;5080818;28;20402;-64
2022/06/07 11:44:10;;;;;;;4.30;2.88;;;20.00;72.60;;;;;;5079305;28;20031;-64
2022/06/07 11:46:38;;;;;;;3.88;2.50;;;20.40;71.90;;;;;;5086481;28;20224;-64
2022/06/07 11:49:24;;;;;;;6.40;4.97;;;20.80;71.00;;;;;;5080090;28;20563;-64
2022/06/07 11:52:12;;;;;;;6.22;5.03;;;21.20;69.50;;;;;;5072885;28;20044;-64
2022/06/07 11:54:51;;;;;;;8.40;4.53;;;21.40;68.30;;;;;;5077081;28;20058;-64
2022/06/07 11:57:31;;;;;;;4.55;3.20;;;21.50;67.20;;;;;;5078906;28;20044;-64
2022/06/07 12:00:19;;;;;;;2.67;2.47;;;21.70;67.50;;;;;;5079573;28;20588;-65
2022/06/07 12:03:17;;;;;;;7.95;3.83;;;21.90;67.50;;;;;;5086040;28;20028;-64
2022/06/07 12:05:47;;;;;;;4.75;3.05;;;22.20;66.10;;;;;;5073215;28;20028;-64
2022/06/07 12:08:29;;;;;;;4.40;3.05;;;22.30;64.90;;;;;;5073511;28;20465;-64
2022/06/07 12:11:20;;;;;;;4.18;3.22;;;22.40;64.60;;;;;;5073439;28;20250;-63
2022/06/07 12:13:54;;;;;;;3.53;2.60;;;22.60;64.70;;;;;;5073093;28;20031;-63
2022/06/07 12:16:43;;;;;;;6.10;3.70;;;22.90;63.60;;;;;;5078767;28;20119;-63
2022/06/07 12:19:24;;;;;;;4.90;3.22;;;23.00;61.80;;;;;;5077329;28;20107;-63
2022/06/07 12:22:11;;;;;;;4.53;3.13;;;23.20;61.70;;;;;;5078876;28;20021;-63
2022/06/07 12:24:45;;;;;;;5.57;3.63;;;23.10;61.20;;;;;;5075323;28;20092;-64
2022/06/07 12:27:29;;;;;;;3.42;2.22;;;23.00;61.70;;;;;;5072900;28;20040;-64
2022/06/07 12:30:00;;;;;;;1.95;1.70;;;23.20;62.20;;;;;;5072231;28;20434;-63
2022/06/07 12:32:36;;;;;;;2.33;2.13;;;23.50;62.30;;;;;;5071740;28;20025;-64
2022/06/07 12:35:19;;;;;;;3.78;2.45;;;23.60;62.00;;;;;;5079752;28;20084;-63
2022/06/07 12:37:52;;;;;;;2.10;1.75;;;23.60;61.40;;;;;;5071109;28;20013;-64
2022/06/07 12:40:33;;;;;;;2.40;1.80;;;23.60;61.20;;;;;;5067759;28;20025;-64
2022/06/07 12:43:00;;;;;;;2.03;1.77;;;23.60;60.70;;;;;;5084556;28;20027;-63
2022/06/07 12:45:34;;;;;;;3.08;2.53;;;23.60;60.40;;;;;;5069810;28;20394;-64
2022/06/07 12:48:15;;;;;;;2.90;2.20;;;23.30;60.60;;;;;;5075807;28;20020;-63
2022/06/07 12:50:43;;;;;;;2.88;2.40;;;23.00;61.10;;;;;;5071088;28;20088;-67
2022/06/07 12:53:21;;;;;;;3.20;2.33;;;22.80;61.50;;;;;;5089657;28;20016;-68
2022/06/07 12:56:02;;;;;;;4.22;2.65;;;22.80;62.20;;;;;;5078593;28;20032;-68
2022/06/07 12:58:34;;;;;;;3.45;2.40;;;23.00;61.60;;;;;;5075860;28;20126;-67
2022/06/07 13:01:01;;;;;;;3.08;2.05;;;22.90;61.20;;;;;;5078088;28;20029;-68
2022/06/07 13:03:37;;;;;;;2.42;2.00;;;23.00;60.60;;;;;;5080028;28;20138;-68
2022/06/07 13:06:06;;;;;;;2.38;2.17;;;23.20;60.70;;;;;;5084970;28;20033;-68
2022/06/07 13:08:37;;;;;;;3.67;2.00;;;23.30;59.90;;;;;;5078378;28;20028;-68
2022/06/07 13:11:06;;;;;;;3.13;2.30;;;23.40;59.70;;;;;;5071718;28;20573;-68
2022/06/07 13:13:39;;;;;;;3.83;3.03;;;23.30;58.90;;;;;;5080061;28;20348;-68
2022/06/07 13:16:08;;;;;;;3.10;2.60;;;23.30;59.50;;;;;;5075802;28;20093;-66
2022/06/07 13:18:38;;;;;;;4.40;2.40;;;23.20;59.70;;;;;;5071540;28;20036;-66
2022/06/07 13:21:16;;;;;;;2.88;2.10;;;23.10;60.00;;;;;;5077836;28;20051;-65
2022/06/07 13:23:43;;;;;;;2.20;1.95;;;23.20;60.10;;;;;;5085440;28;20028;-68
2022/06/07 13:26:17;;;;;;;1.92;1.70;;;23.30;60.20;;;;;;5095904;28;20032;-68
2022/06/07 13:28:45;;;;;;;3.05;2.17;;;23.50;60.00;;;;;;5089158;28;20036;-67